aviador You're here:

GMMN Decoded Metar

CASABLANCA in MOROCCO
Report Time2017-08-20 19:00:00
UTC Time2017-08-20 19:12:19
Flight Rules vfr VFR
Wind010° at 05 kt
W.Decomp.*RWY 35: 4.6 kt HW 1.9 kt RCW
W.Rank010° ranks 2
Current wind is below 010° avg. (9.6)
Visibility9999 m
Phenomena:N/A
Clouds:N/A
Expected CloudBase > 3,200 ft AGL from Temp-Dew spread
CeilingNone
Temp29°C (ISA +15)
Dew Point21°C (62% RH)
Heat Index31.3°C
QNH1015 hPa
Density Alt2,700 ft
Elevation676 ft
Report Wrong Elevation
Raw Report
GMMN 201900Z 01005KT CAVOK 29/21 Q1015 NOSIG=

Extra information for GMMN:More info

Metar Taf Metar & Taf Last 4 Metars F.Rules Stats Wind Profile Meteogram Temp Stats Airport Information Weather charts Add Link Nearby VenuesMetar ALERT Operation Metar Decoded Social comments